Time;durP1;ratioP1;P1;durP2;ratioP2;P2;SDS_P1;SDS_P2;PMS_P1;PMS_P2;Temp;Humidity;BMP_temperature;BMP_pressure;BME280_temperature;BME280_humidity;BME280_pressure;Samples;Min_cycle;Max_cycle;Signal;HPM_P1;HPM_P2
2023/06/07 00:00:44;;;;;;;4.68;2.78;;;;;;;;;;6122367;23;20016;-86
2023/06/07 00:03:10;;;;;;;6.63;2.90;;;;;;;;;;6120254;23;20545;-86
2023/06/07 00:05:37;;;;;;;7.38;3.50;;;;;;;;;;6119622;23;20018;-85
2023/06/07 00:08:04;;;;;;;4.57;3.30;;;;;;;;;;6121230;23;20018;-85
2023/06/07 00:10:31;;;;;;;6.45;3.30;;;;;;;;;;6121562;23;20010;-85
2023/06/07 00:12:57;;;;;;;5.88;3.00;;;;;;;;;;6122131;23;20076;-85
2023/06/07 00:15:24;;;;;;;8.98;3.67;;;;;;;;;;6120223;23;20471;-84
2023/06/07 00:17:50;;;;;;;3.55;2.70;;;;;;;;;;6122067;23;20010;-85
2023/06/07 00:20:16;;;;;;;5.32;2.85;;;;;;;;;;6120532;23;20223;-85
2023/06/07 00:22:42;;;;;;;4.97;2.95;;;;;;;;;;6121923;23;20018;-85
2023/06/07 00:25:08;;;;;;;7.65;3.33;;;;;;;;;;6122838;23;20026;-85
2023/06/07 00:27:34;;;;;;;5.60;3.22;;;;;;;;;;6118826;23;20014;-84
2023/06/07 00:30:03;;;;;;;7.28;3.35;;;;;;;;;;6121194;23;20029;-85
2023/06/07 00:32:29;;;;;;;5.50;2.70;;;;;;;;;;6119302;23;20029;-85
2023/06/07 00:34:55;;;;;;;5.85;3.78;;;;;;;;;;6121005;23;20344;-85
2023/06/07 00:37:21;;;;;;;4.95;3.03;;;;;;;;;;6120212;23;20014;-85
2023/06/07 00:39:47;;;;;;;9.32;3.80;;;;;;;;;;6122372;23;20392;-85
2023/06/07 00:42:13;;;;;;;7.07;3.17;;;;;;;;;;6121905;23;20075;-84
2023/06/07 00:44:39;;;;;;;6.60;3.50;;;;;;;;;;6121072;23;20022;-85
2023/06/07 00:47:05;;;;;;;5.10;2.95;;;;;;;;;;6122236;23;20110;-85
2023/06/07 00:49:31;;;;;;;5.05;2.90;;;;;;;;;;6121437;23;20018;-86
2023/06/07 00:51:57;;;;;;;4.05;2.75;;;;;;;;;;6120484;23;20021;-85
2023/06/07 00:54:23;;;;;;;6.15;3.53;;;;;;;;;;6121375;23;20029;-85
2023/06/07 00:56:50;;;;;;;3.92;2.90;;;;;;;;;;6121320;23;20041;-85
2023/06/07 00:59:19;;;;;;;5.55;3.35;;;;;;;;;;6122452;23;20034;-85
2023/06/07 01:01:47;;;;;;;6.43;3.97;;;;;;;;;;6119763;23;20018;-85
2023/06/07 01:04:13;;;;;;;7.70;3.42;;;;;;;;;;6120336;23;20018;-85
2023/06/07 01:06:39;;;;;;;4.70;2.78;;;;;;;;;;6119278;23;20448;-85
2023/06/07 01:09:06;;;;;;;6.43;3.28;;;;;;;;;;6122360;23;20025;-85
2023/06/07 01:11:33;;;;;;;6.50;3.28;;;;;;;;;;6120583;23;20104;-85
2023/06/07 01:13:59;;;;;;;4.65;3.72;;;;;;;;;;6120469;23;20029;-85
2023/06/07 01:16:26;;;;;;;6.30;3.33;;;;;;;;;;6119330;23;20045;-85
2023/06/07 01:18:53;;;;;;;4.93;2.78;;;;;;;;;;6121214;23;20093;-85
2023/06/07 01:21:19;;;;;;;7.40;3.20;;;;;;;;;;6119351;23;20403;-85
2023/06/07 01:23:45;;;;;;;8.75;4.57;;;;;;;;;;6121988;23;20088;-85
2023/06/07 01:26:12;;;;;;;7.47;3.75;;;;;;;;;;6118990;23;20033;-85
2023/06/07 01:28:41;;;;;;;5.30;3.08;;;;;;;;;;6120573;23;20064;-85
2023/06/07 01:31:07;;;;;;;7.22;3.08;;;;;;;;;;6120442;23;20089;-85
2023/06/07 01:33:34;;;;;;;8.05;3.05;;;;;;;;;;6120757;23;20014;-85
2023/06/07 01:36:00;;;;;;;6.32;3.03;;;;;;;;;;6120449;23;20089;-85
2023/06/07 01:38:27;;;;;;;5.22;3.17;;;;;;;;;;6119446;23;20093;-84
2023/06/07 01:40:54;;;;;;;6.45;3.53;;;;;;;;;;6120346;23;20014;-85
2023/06/07 01:43:21;;;;;;;9.23;3.15;;;;;;;;;;6121255;23;20332;-85
2023/06/07 01:45:48;;;;;;;6.72;4.18;;;;;;;;;;6120572;23;20535;-85
2023/06/07 01:48:16;;;;;;;8.77;3.55;;;;;;;;;;6119438;23;20026;-85
2023/06/07 01:50:42;;;;;;;6.18;3.72;;;;;;;;;;6121693;23;20014;-85
2023/06/07 01:53:08;;;;;;;6.60;3.75;;;;;;;;;;6120305;23;20320;-86
2023/06/07 01:55:34;;;;;;;7.47;3.70;;;;;;;;;;6118410;23;20014;-85
2023/06/07 01:58:06;;;;;;;6.18;3.47;;;;;;;;;;6121977;23;20014;-85
2023/06/07 02:00:40;;;;;;;6.70;4.03;;;;;;;;;;6118699;23;20014;-85
2023/06/07 02:03:07;;;;;;;9.10;3.58;;;;;;;;;;6120115;23;20017;-85
2023/06/07 02:05:38;;;;;;;5.50;3.35;;;;;;;;;;6119358;23;20177;-86
2023/06/07 02:08:09;;;;;;;8.30;3.72;;;;;;;;;;6122795;23;20125;-85
2023/06/07 02:10:35;;;;;;;8.88;3.60;;;;;;;;;;6121219;23;20018;-85
2023/06/07 02:13:02;;;;;;;7.95;3.40;;;;;;;;;;6127075;23;20076;-85
2023/06/07 02:15:28;;;;;;;10.07;3.85;;;;;;;;;;6124084;23;20385;-86
2023/06/07 02:17:57;;;;;;;10.52;4.10;;;;;;;;;;6097147;23;20018;-86
2023/06/07 02:20:24;;;;;;;7.90;3.67;;;;;;;;;;6121893;23;20014;-85
2023/06/07 02:22:50;;;;;;;7.68;4.38;;;;;;;;;;6121325;23;20022;-85
2023/06/07 02:25:16;;;;;;;5.72;3.63;;;;;;;;;;6126902;23;20018;-84
2023/06/07 02:27:42;;;;;;;4.93;2.85;;;;;;;;;;6126094;23;20014;-84
2023/06/07 02:30:09;;;;;;;8.02;3.50;;;;;;;;;;6127992;23;20586;-86
2023/06/07 02:32:35;;;;;;;5.88;3.08;;;;;;;;;;6122104;23;20018;-86
2023/06/07 02:35:01;;;;;;;6.65;3.47;;;;;;;;;;6122883;23;20088;-85
2023/06/07 02:37:28;;;;;;;6.35;3.40;;;;;;;;;;6121383;23;20020;-86
2023/06/07 02:39:54;;;;;;;8.98;3.85;;;;;;;;;;6124234;23;20014;-85
2023/06/07 02:42:20;;;;;;;6.60;3.38;;;;;;;;;;6122485;23;20119;-85
2023/06/07 02:44:46;;;;;;;6.97;3.38;;;;;;;;;;6121275;23;20018;-85
2023/06/07 02:47:12;;;;;;;6.40;3.75;;;;;;;;;;6123763;23;20069;-85
2023/06/07 02:49:38;;;;;;;7.75;3.20;;;;;;;;;;6120792;23;20025;-85
2023/06/07 02:52:04;;;;;;;8.93;4.05;;;;;;;;;;6123103;23;20072;-86
2023/06/07 02:54:34;;;;;;;6.57;3.55;;;;;;;;;;6122265;23;20018;-85
2023/06/07 02:57:00;;;;;;;8.48;3.63;;;;;;;;;;6122797;23;20018;-87
2023/06/07 02:59:29;;;;;;;6.93;4.18;;;;;;;;;;6120435;23;20140;-86
2023/06/07 03:01:55;;;;;;;8.70;3.45;;;;;;;;;;6121558;23;20017;-85
2023/06/07 03:04:22;;;;;;;7.75;3.53;;;;;;;;;;6120636;23;20025;-86
2023/06/07 03:06:51;;;;;;;6.22;3.70;;;;;;;;;;6121009;23;20073;-85
2023/06/07 03:09:18;;;;;;;6.88;2.92;;;;;;;;;;6121476;23;20018;-86
2023/06/07 03:11:45;;;;;;;6.15;3.58;;;;;;;;;;6121172;23;20022;-87
2023/06/07 03:14:11;;;;;;;8.88;3.95;;;;;;;;;;6121233;23;20018;-86
2023/06/07 03:16:37;;;;;;;7.65;3.78;;;;;;;;;;6120212;23;20028;-85
2023/06/07 03:19:03;;;;;;;8.95;4.00;;;;;;;;;;6123545;23;20077;-86
2023/06/07 03:21:29;;;;;;;11.75;5.03;;;;;;;;;;6121560;23;20608;-85
2023/06/07 03:23:55;;;;;;;9.00;4.00;;;;;;;;;;6123495;23;20029;-85
2023/06/07 03:26:21;;;;;;;8.15;5.05;;;;;;;;;;6120596;23;20045;-85
2023/06/07 03:28:48;;;;;;;7.88;3.60;;;;;;;;;;6122966;23;20018;-85
2023/06/07 03:31:14;;;;;;;7.63;4.25;;;;;;;;;;6121084;23;20018;-86
2023/06/07 03:33:40;;;;;;;8.93;4.07;;;;;;;;;;6120039;23;20018;-85
2023/06/07 03:36:07;;;;;;;7.22;3.38;;;;;;;;;;6121023;23;20030;-86
2023/06/07 03:38:33;;;;;;;7.70;3.83;;;;;;;;;;6119836;23;20069;-85
2023/06/07 03:40:59;;;;;;;9.20;3.28;;;;;;;;;;6121512;23;20017;-86
2023/06/07 03:43:25;;;;;;;6.88;3.60;;;;;;;;;;6122357;23;20025;-86
2023/06/07 03:45:51;;;;;;;11.43;5.82;;;;;;;;;;6122499;23;20335;-86
2023/06/07 03:48:17;;;;;;;8.35;3.72;;;;;;;;;;6120616;23;20018;-86
2023/06/07 03:50:43;;;;;;;7.20;2.97;;;;;;;;;;6119949;23;20017;-85
2023/06/07 03:53:10;;;;;;;10.23;3.78;;;;;;;;;;6121634;23;20014;-86
2023/06/07 03:55:37;;;;;;;6.60;3.20;;;;;;;;;;6120392;23;20574;-85
2023/06/07 03:58:03;;;;;;;6.97;3.53;;;;;;;;;;6121292;23;20454;-86
2023/06/07 04:00:29;;;;;;;6.40;2.65;;;;;;;;;;6121507;23;20014;-87
2023/06/07 04:02:55;;;;;;;3.88;2.15;;;;;;;;;;6120789;23;20021;-85
2023/06/07 04:05:24;;;;;;;5.50;2.92;;;;;;;;;;6122032;23;20025;-87
2023/06/07 04:07:50;;;;;;;7.47;3.22;;;;;;;;;;6122544;23;20018;-86
2023/06/07 04:10:19;;;;;;;6.75;2.72;;;;;;;;;;6122209;23;20081;-86
2023/06/07 04:12:45;;;;;;;8.73;2.92;;;;;;;;;;6122508;23;20014;-86
2023/06/07 04:15:11;;;;;;;6.53;3.45;;;;;;;;;;6123004;23;20022;-87
2023/06/07 04:17:37;;;;;;;8.18;3.05;;;;;;;;;;6122059;23;20041;-86
2023/06/07 04:20:04;;;;;;;4.20;2.50;;;;;;;;;;6119903;23;20018;-85
2023/06/07 04:22:30;;;;;;;8.15;3.42;;;;;;;;;;6119718;23;20018;-85
2023/06/07 04:24:57;;;;;;;8.63;2.97;;;;;;;;;;6096496;23;20077;-86
2023/06/07 04:27:23;;;;;;;8.65;2.75;;;;;;;;;;6121886;23;20418;-86
2023/06/07 04:29:53;;;;;;;7.18;3.25;;;;;;;;;;6120652;23;20056;-86
2023/06/07 04:32:19;;;;;;;5.97;2.70;;;;;;;;;;6121689;23;20017;-85
2023/06/07 04:34:48;;;;;;;4.95;3.08;;;;;;;;;;6119223;23;20057;-85
2023/06/07 04:37:16;;;;;;;5.57;2.53;;;;;;;;;;6122978;23;20081;-86
2023/06/07 04:39:44;;;;;;;7.57;3.20;;;;;;;;;;6120223;23;20044;-86
2023/06/07 04:42:11;;;;;;;5.25;2.90;;;;;;;;;;6122527;23;20093;-86
2023/06/07 04:44:37;;;;;;;6.35;2.78;;;;;;;;;;6120913;23;20092;-85
2023/06/07 04:47:05;;;;;;;10.63;3.53;;;;;;;;;;6122730;23;20387;-85
2023/06/07 04:49:33;;;;;;;4.90;2.97;;;;;;;;;;6118008;23;20093;-85
2023/06/07 04:52:01;;;;;;;4.70;2.65;;;;;;;;;;6121972;23;20053;-88
2023/06/07 04:54:28;;;;;;;7.35;2.95;;;;;;;;;;6119595;23;20022;-84
2023/06/07 04:56:56;;;;;;;8.73;3.28;;;;;;;;;;6121694;23;20448;-84
2023/06/07 04:59:23;;;;;;;6.07;3.08;;;;;;;;;;6119718;23;20040;-84
2023/06/07 05:01:49;;;;;;;6.78;2.97;;;;;;;;;;6120865;23;20014;-85
2023/06/07 05:04:16;;;;;;;7.70;2.30;;;;;;;;;;6121122;23;20426;-84
2023/06/07 05:06:42;;;;;;;6.88;3.10;;;;;;;;;;6095245;23;20013;-83
2023/06/07 05:09:09;;;;;;;6.30;2.80;;;;;;;;;;6120038;23;20371;-85
2023/06/07 05:11:35;;;;;;;7.35;2.63;;;;;;;;;;6095474;23;20024;-85
2023/06/07 05:14:01;;;;;;;6.63;2.65;;;;;;;;;;6122375;23;20014;-86
2023/06/07 05:16:27;;;;;;;7.35;2.80;;;;;;;;;;6120958;23;20354;-85
2023/06/07 05:18:56;;;;;;;5.78;2.88;;;;;;;;;;6095616;23;20045;-85
2023/06/07 05:21:22;;;;;;;7.70;2.97;;;;;;;;;;6119331;23;20017;-86
2023/06/07 05:23:48;;;;;;;7.20;2.45;;;;;;;;;;6121701;23;20021;-87
2023/06/07 05:26:15;;;;;;;5.78;2.20;;;;;;;;;;6120635;23;20014;-85
2023/06/07 05:28:40;;;;;;;8.23;2.63;;;;;;;;;;6121024;23;20021;-86
2023/06/07 05:31:07;;;;;;;11.05;2.85;;;;;;;;;;6120430;23;20092;-85
2023/06/07 05:33:33;;;;;;;9.13;3.40;;;;;;;;;;6118833;23;20097;-86
2023/06/07 05:35:59;;;;;;;5.15;3.05;;;;;;;;;;6123687;23;20041;-83
2023/06/07 05:38:25;;;;;;;5.82;2.28;;;;;;;;;;6122851;23;20608;-86
2023/06/07 05:40:51;;;;;;;8.45;2.78;;;;;;;;;;6123966;23;20070;-86
2023/06/07 05:43:17;;;;;;;7.25;2.25;;;;;;;;;;6121202;23;20066;-86
2023/06/07 05:45:43;;;;;;;7.50;2.80;;;;;;;;;;6122478;23;20014;-88
2023/06/07 05:48:10;;;;;;;6.75;2.72;;;;;;;;;;6120580;23;20499;-87
2023/06/07 05:50:36;;;;;;;6.78;3.58;;;;;;;;;;6120163;23;20360;-85
2023/06/07 05:53:02;;;;;;;10.43;2.63;;;;;;;;;;6126869;23;20382;-87
2023/06/07 05:55:28;;;;;;;4.13;2.03;;;;;;;;;;6126622;23;20013;-85
2023/06/07 05:57:57;;;;;;;8.00;2.38;;;;;;;;;;6125069;23;20013;-85
2023/06/07 06:00:23;;;;;;;5.03;2.03;;;;;;;;;;6121121;23;20014;-85
2023/06/07 06:02:50;;;;;;;9.43;2.83;;;;;;;;;;6124951;23;20363;-87
2023/06/07 06:05:16;;;;;;;5.60;2.08;;;;;;;;;;6122084;23;20025;-87
2023/06/07 06:07:42;;;;;;;5.97;1.98;;;;;;;;;;6123502;23;20017;-86
2023/06/07 06:10:09;;;;;;;6.20;2.85;;;;;;;;;;6122086;23;20383;-85
2023/06/07 06:12:34;;;;;;;5.03;2.25;;;;;;;;;;6121443;23;20022;-83
2023/06/07 06:15:01;;;;;;;5.93;2.65;;;;;;;;;;6123502;23;20020;-84
2023/06/07 06:17:27;;;;;;;5.57;2.83;;;;;;;;;;6121192;23;20034;-83
2023/06/07 06:19:53;;;;;;;6.85;2.65;;;;;;;;;;6123282;23;20331;-84
2023/06/07 06:22:19;;;;;;;7.15;2.35;;;;;;;;;;6120658;23;20022;-82
2023/06/07 06:24:45;;;;;;;6.07;2.30;;;;;;;;;;6121835;23;20034;-85
2023/06/07 06:27:12;;;;;;;5.32;1.90;;;;;;;;;;6121110;23;20021;-84
2023/06/07 06:29:38;;;;;;;5.07;2.30;;;;;;;;;;6120613;23;20026;-83
2023/06/07 06:32:04;;;;;;;6.00;2.00;;;;;;;;;;6121622;23;20022;-84
2023/06/07 06:34:30;;;;;;;6.78;2.00;;;;;;;;;;6119927;23;20021;-86
2023/06/07 06:37:00;;;;;;;5.65;2.15;;;;;;;;;;6121012;23;20014;-84
2023/06/07 06:39:26;;;;;;;8.13;2.20;;;;;;;;;;6117444;23;20029;-85
2023/06/07 06:41:52;;;;;;;4.65;2.28;;;;;;;;;;6121348;23;20022;-87
2023/06/07 06:44:18;;;;;;;4.68;2.40;;;;;;;;;;6122668;23;20017;-84
2023/06/07 06:46:45;;;;;;;6.70;2.25;;;;;;;;;;6121411;23;20380;-85
2023/06/07 06:49:11;;;;;;;5.97;2.08;;;;;;;;;;6121672;23;20021;-86
2023/06/07 06:51:36;;;;;;;5.85;2.33;;;;;;;;;;6121791;23;20174;-86
2023/06/07 06:54:03;;;;;;;6.40;2.28;;;;;;;;;;6122194;23;20022;-90
2023/06/07 06:56:29;;;;;;;6.68;2.58;;;;;;;;;;6099282;23;20018;-93
2023/06/07 06:58:56;;;;;;;7.03;2.58;;;;;;;;;;6099241;23;20117;-84
2023/06/07 07:01:22;;;;;;;6.25;2.35;;;;;;;;;;6121450;23;20317;-86
2023/06/07 07:03:48;;;;;;;6.47;2.05;;;;;;;;;;6121561;23;20468;-86
2023/06/07 07:06:14;;;;;;;4.90;2.35;;;;;;;;;;6122235;23;20030;-85
2023/06/07 07:08:41;;;;;;;4.97;2.20;;;;;;;;;;6126363;23;20025;-84
2023/06/07 07:11:07;;;;;;;5.93;2.05;;;;;;;;;;6126419;23;20041;-86
2023/06/07 07:13:33;;;;;;;5.28;1.90;;;;;;;;;;6120740;23;20029;-87
2023/06/07 07:15:59;;;;;;;5.80;2.25;;;;;;;;;;6121727;23;20379;-87
2023/06/07 07:18:25;;;;;;;7.88;2.50;;;;;;;;;;6120652;23;20018;-87
2023/06/07 07:20:51;;;;;;;6.05;2.15;;;;;;;;;;6122070;23;20017;-83
2023/06/07 07:23:17;;;;;;;4.30;1.98;;;;;;;;;;6124780;23;20006;-90
2023/06/07 07:25:43;;;;;;;3.97;2.10;;;;;;;;;;6125108;23;20081;-92
2023/06/07 07:28:09;;;;;;;6.40;2.47;;;;;;;;;;6122037;23;20018;-86
2023/06/07 07:30:35;;;;;;;5.65;2.15;;;;;;;;;;6119774;23;20487;-86
2023/06/07 07:33:02;;;;;;;6.15;2.25;;;;;;;;;;6120654;23;20029;-87
2023/06/07 07:35:28;;;;;;;5.82;2.20;;;;;;;;;;6122455;23;20045;-90
2023/06/07 07:37:54;;;;;;;5.15;2.05;;;;;;;;;;6121680;23;20018;-90
2023/06/07 07:40:20;;;;;;;6.05;1.95;;;;;;;;;;6120790;23;20490;-87
2023/06/07 07:42:46;;;;;;;4.78;2.10;;;;;;;;;;6120639;23;20017;-88
2023/06/07 07:45:13;;;;;;;7.45;2.03;;;;;;;;;;6122462;23;20029;-85
2023/06/07 07:47:40;;;;;;;6.75;2.13;;;;;;;;;;6096190;23;20093;-87
2023/06/07 07:50:07;;;;;;;4.93;2.08;;;;;;;;;;6123259;23;20455;-89
2023/06/07 07:52:33;;;;;;;10.98;2.22;;;;;;;;;;6123160;23;20336;-90
2023/06/07 07:54:59;;;;;;;6.97;1.83;;;;;;;;;;6123205;23;20436;-92
2023/06/07 07:57:26;;;;;;;4.68;1.80;;;;;;;;;;6122203;23;20022;-92
2023/06/07 07:59:52;;;;;;;5.18;2.67;;;;;;;;;;6120869;23;20022;-85
2023/06/07 08:02:18;;;;;;;6.07;2.15;;;;;;;;;;6122254;23;20074;-90
2023/06/07 08:04:44;;;;;;;8.32;2.60;;;;;;;;;;6123582;23;20097;-89
2023/06/07 08:07:15;;;;;;;6.32;1.95;;;;;;;;;;6097219;23;20022;-86
2023/06/07 08:09:41;;;;;;;4.65;2.22;;;;;;;;;;6123451;23;20017;-88
2023/06/07 08:12:07;;;;;;;4.82;1.83;;;;;;;;;;6122017;23;20331;-92
2023/06/07 08:14:33;;;;;;;2.45;1.92;;;;;;;;;;6097054;23;20340;-93
2023/06/07 08:16:59;;;;;;;4.93;2.10;;;;;;;;;;6119928;23;20029;-89
2023/06/07 08:19:27;;;;;;;5.93;1.90;;;;;;;;;;6122600;23;20014;-88
2023/06/07 08:21:53;;;;;;;6.35;2.65;;;;;;;;;;6122465;23;20073;-89
2023/06/07 08:24:19;;;;;;;6.13;2.45;;;;;;;;;;6122135;23;20344;-91
2023/06/07 08:26:47;;;;;;;6.75;2.22;;;;;;;;;;6124673;23;20022;-92
2023/06/07 08:29:13;;;;;;;5.40;2.17;;;;;;;;;;6102177;23;20100;-89
2023/06/07 08:31:43;;;;;;;3.75;2.00;;;;;;;;;;6125187;23;20022;-90
2023/06/07 08:34:09;;;;;;;6.88;1.98;;;;;;;;;;6124072;23;20018;-88
2023/06/07 08:36:36;;;;;;;5.43;2.35;;;;;;;;;;6122721;23;20013;-92
2023/06/07 08:39:02;;;;;;;5.32;2.00;;;;;;;;;;6123015;23;20029;-90
2023/06/07 08:41:28;;;;;;;3.75;2.10;;;;;;;;;;6121145;23;20384;-88
2023/06/07 08:43:54;;;;;;;5.75;2.00;;;;;;;;;;6123498;23;20022;-88
2023/06/07 08:46:20;;;;;;;5.00;2.15;;;;;;;;;;6122964;23;20057;-91
2023/06/07 08:48:49;;;;;;;8.05;2.58;;;;;;;;;;6121840;23;20112;-87
2023/06/07 08:51:16;;;;;;;4.63;2.22;;;;;;;;;;6121753;23;20451;-89
2023/06/07 08:53:54;;;;;;;5.50;3.00;;;;;;;;;;6122083;23;20336;-89
2023/06/07 08:56:21;;;;;;;6.70;2.42;;;;;;;;;;6120220;23;20018;-93
2023/06/07 08:58:51;;;;;;;5.60;2.25;;;;;;;;;;6124537;23;20321;-89
2023/06/07 09:01:20;;;;;;;6.00;2.25;;;;;;;;;;6122662;23;20014;-87
2023/06/07 09:03:49;;;;;;;5.97;2.80;;;;;;;;;;6128356;23;20021;-90
2023/06/07 09:06:15;;;;;;;7.32;2.30;;;;;;;;;;6123121;23;20072;-91
2023/06/07 09:08:41;;;;;;;5.03;2.13;;;;;;;;;;6121883;23;20375;-87
2023/06/07 09:11:07;;;;;;;5.22;2.80;;;;;;;;;;6120953;23;20017;-87
2023/06/07 09:13:34;;;;;;;5.95;2.20;;;;;;;;;;6122038;23;20049;-92
2023/06/07 09:16:00;;;;;;;5.70;2.22;;;;;;;;;;6102443;23;20018;-90
2023/06/07 09:18:42;;;;;;;5.55;2.22;;;;;;;;;;6126608;23;20048;-91
2023/06/07 09:21:24;;;;;;;5.47;2.40;;;;;;;;;;6127871;23;20014;-93
2023/06/07 09:23:50;;;;;;;3.70;2.10;;;;;;;;;;6121530;23;20097;-90
2023/06/07 09:26:17;;;;;;;6.15;2.42;;;;;;;;;;6123017;23;20018;-89
2023/06/07 09:28:46;;;;;;;6.93;2.92;;;;;;;;;;6122447;23;20029;-88
2023/06/07 09:31:12;;;;;;;4.95;2.67;;;;;;;;;;6122269;23;20014;-89
2023/06/07 09:33:38;;;;;;;5.68;2.05;;;;;;;;;;6120990;23;20364;-87
2023/06/07 09:36:11;;;;;;;6.50;2.50;;;;;;;;;;6122773;23;20022;-89
2023/06/07 09:38:37;;;;;;;4.18;1.92;;;;;;;;;;6122288;23;20084;-90
2023/06/07 09:41:05;;;;;;;4.00;1.92;;;;;;;;;;6125635;23;20014;-86
2023/06/07 09:43:47;;;;;;;5.15;2.33;;;;;;;;;;6122284;23;20053;-88
2023/06/07 09:46:13;;;;;;;3.30;1.73;;;;;;;;;;6121081;23;20356;-90
2023/06/07 09:48:49;;;;;;;4.68;2.38;;;;;;;;;;6120367;23;20018;-91
2023/06/07 09:51:17;;;;;;;7.63;3.00;;;;;;;;;;6120436;23;20309;-88
2023/06/07 09:53:52;;;;;;;5.05;2.65;;;;;;;;;;6120665;23;20022;-88
2023/06/07 09:56:18;;;;;;;6.38;2.53;;;;;;;;;;6121945;23;20325;-87
2023/06/07 09:58:49;;;;;;;3.28;1.58;;;;;;;;;;6120318;23;20304;-91
2023/06/07 10:01:30;;;;;;;6.05;2.38;;;;;;;;;;6120644;23;20022;-89
2023/06/07 10:03:56;;;;;;;5.30;2.20;;;;;;;;;;6124176;23;20094;-94
2023/06/07 10:06:23;;;;;;;4.78;2.45;;;;;;;;;;6096951;23;20045;-93
2023/06/07 10:08:50;;;;;;;5.32;2.30;;;;;;;;;;6120309;23;20025;-90
2023/06/07 10:11:17;;;;;;;4.93;2.50;;;;;;;;;;6120757;23;20018;-90
2023/06/07 10:13:44;;;;;;;4.43;2.50;;;;;;;;;;6123317;23;20328;-91
2023/06/07 10:16:11;;;;;;;6.88;2.47;;;;;;;;;;6120381;23;20079;-87
2023/06/07 10:18:40;;;;;;;3.58;2.20;;;;;;;;;;6119361;23;20388;-87
2023/06/07 10:21:12;;;;;;;6.00;2.30;;;;;;;;;;6121874;23;20032;-87
2023/06/07 10:23:43;;;;;;;6.45;2.40;;;;;;;;;;6118581;23;20026;-88
2023/06/07 10:26:35;;;;;;;4.53;1.90;;;;;;;;;;6120712;23;20022;-89
2023/06/07 10:29:07;;;;;;;3.55;1.67;;;;;;;;;;6118069;23;20025;-88
2023/06/07 10:31:35;;;;;;;5.45;2.13;;;;;;;;;;6121582;23;20017;-89
2023/06/07 10:34:07;;;;;;;3.60;2.10;;;;;;;;;;6120795;23;20081;-90
2023/06/07 10:36:36;;;;;;;5.00;2.10;;;;;;;;;;6120757;23;20080;-88
2023/06/07 10:39:02;;;;;;;3.42;2.03;;;;;;;;;;6122775;23;20474;-89
2023/06/07 10:41:29;;;;;;;5.85;2.50;;;;;;;;;;6121807;23;20037;-88
2023/06/07 10:43:55;;;;;;;4.10;2.35;;;;;;;;;;6123650;23;20024;-88
2023/06/07 10:46:25;;;;;;;6.28;2.20;;;;;;;;;;6123036;23;20024;-90
2023/06/07 10:48:51;;;;;;;5.97;2.90;;;;;;;;;;6099652;23;20021;-91
2023/06/07 10:51:40;;;;;;;7.43;2.55;;;;;;;;;;6099304;23;20014;-92
2023/06/07 10:54:07;;;;;;;7.20;2.22;;;;;;;;;;6103963;23;20014;-94
2023/06/07 10:56:37;;;;;;;5.90;2.88;;;;;;;;;;6100251;23;20089;-95
2023/06/07 10:59:15;;;;;;;6.60;2.53;;;;;;;;;;6102091;23;20021;-93
2023/06/07 11:01:46;;;;;;;4.45;2.17;;;;;;;;;;6125248;23;20093;-91
2023/06/07 11:04:31;;;;;;;8.18;2.70;;;;;;;;;;6128019;23;20475;-91
2023/06/07 11:07:17;;;;;;;6.47;2.20;;;;;;;;;;6100183;23;20046;-91
2023/06/07 11:09:43;;;;;;;7.10;2.30;;;;;;;;;;6130705;23;20014;-94
2023/06/07 11:12:09;;;;;;;4.13;2.20;;;;;;;;;;6127077;23;20056;-91
2023/06/07 11:14:35;;;;;;;5.88;2.38;;;;;;;;;;6099300;23;20022;-95
2023/06/07 11:17:04;;;;;;;5.82;2.47;;;;;;;;;;6127275;23;20056;-90
2023/06/07 11:19:50;;;;;;;4.65;2.22;;;;;;;;;;6121253;23;20081;-93
2023/06/07 11:22:16;;;;;;;7.55;2.60;;;;;;;;;;6125669;23;20022;-94
2023/06/07 11:24:42;;;;;;;3.55;2.45;;;;;;;;;;6099828;23;20067;-89
2023/06/07 11:27:11;;;;;;;4.25;2.30;;;;;;;;;;6126788;23;20079;-93
2023/06/07 11:29:37;;;;;;;3.60;2.60;;;;;;;;;;6123674;23;20018;-95
2023/06/07 11:32:04;;;;;;;6.40;2.25;;;;;;;;;;6100353;23;20065;-91
2023/06/07 11:34:30;;;;;;;3.90;2.53;;;;;;;;;;6120870;23;20029;-92
2023/06/07 11:37:09;;;;;;;5.15;2.15;;;;;;;;;;6122532;23;20010;-90
2023/06/07 11:39:35;;;;;;;4.68;2.50;;;;;;;;;;6122691;23;20341;-92
2023/06/07 11:42:01;;;;;;;3.63;2.40;;;;;;;;;;6126463;23;20032;-92
2023/06/07 11:44:28;;;;;;;6.30;2.70;;;;;;;;;;6126266;23;20028;-89
2023/06/07 11:46:55;;;;;;;3.15;1.98;;;;;;;;;;6124390;23;20309;-93
2023/06/07 11:49:23;;;;;;;5.20;2.25;;;;;;;;;;6125411;23;20041;-89
2023/06/07 11:51:49;;;;;;;5.68;2.58;;;;;;;;;;6125913;23;20014;-91
2023/06/07 11:54:16;;;;;;;6.00;2.53;;;;;;;;;;6122783;23;20052;-89
2023/06/07 11:56:42;;;;;;;4.32;2.25;;;;;;;;;;6099857;23;20022;-91
2023/06/07 11:59:11;;;;;;;7.00;3.00;;;;;;;;;;6096649;23;20093;-90
2023/06/07 12:01:43;;;;;;;3.65;2.30;;;;;;;;;;6121479;23;20050;-94
2023/06/07 12:04:09;;;;;;;4.55;2.72;;;;;;;;;;6096879;23;20312;-93
2023/06/07 12:06:36;;;;;;;6.22;3.33;;;;;;;;;;6121961;23;20018;-90
2023/06/07 12:09:02;;;;;;;6.10;2.60;;;;;;;;;;6121186;23;20166;-88
2023/06/07 12:11:28;;;;;;;7.88;3.42;;;;;;;;;;6119714;23;20018;-90
2023/06/07 12:13:54;;;;;;;5.30;2.67;;;;;;;;;;6123121;23;20392;-90
2023/06/07 12:16:21;;;;;;;5.70;2.25;;;;;;;;;;6125182;23;20018;-85
2023/06/07 12:18:47;;;;;;;4.60;2.60;;;;;;;;;;6123711;23;20096;-90
2023/06/07 12:21:16;;;;;;;3.50;2.25;;;;;;;;;;6123554;23;20050;-88
2023/06/07 12:23:52;;;;;;;3.88;2.22;;;;;;;;;;6121623;23;20025;-88
2023/06/07 12:26:24;;;;;;;4.82;2.10;;;;;;;;;;6121655;23;20014;-91
2023/06/07 12:28:50;;;;;;;2.78;2.42;;;;;;;;;;6122028;23;20352;-91
2023/06/07 12:31:17;;;;;;;6.65;2.92;;;;;;;;;;6123458;23;20017;-88
2023/06/07 12:33:55;;;;;;;5.43;2.38;;;;;;;;;;6126814;23;20036;-92
2023/06/07 12:36:29;;;;;;;7.13;2.92;;;;;;;;;;6126671;23;20029;-91
2023/06/07 12:38:58;;;;;;;4.38;2.45;;;;;;;;;;6103926;23;20022;-90
2023/06/07 12:41:27;;;;;;;5.35;2.65;;;;;;;;;;6124524;23;20021;-91
2023/06/07 12:43:54;;;;;;;6.47;3.00;;;;;;;;;;6125850;23;20092;-92
2023/06/07 12:46:20;;;;;;;6.97;2.67;;;;;;;;;;6121299;23;20036;-89
2023/06/07 12:48:46;;;;;;;8.13;2.63;;;;;;;;;;6124496;23;20073;-92
2023/06/07 12:51:12;;;;;;;3.72;2.45;;;;;;;;;;6130617;23;20014;-90
2023/06/07 12:53:39;;;;;;;5.18;2.60;;;;;;;;;;6128995;23;20054;-90
2023/06/07 12:56:05;;;;;;;4.93;2.28;;;;;;;;;;6127709;23;20045;-91
2023/06/07 12:58:31;;;;;;;5.15;2.67;;;;;;;;;;6123809;23;20328;-92
2023/06/07 13:00:57;;;;;;;4.30;2.33;;;;;;;;;;6123558;23;20018;-92
2023/06/07 13:03:24;;;;;;;5.70;2.33;;;;;;;;;;6123181;23;20448;-92
2023/06/07 13:05:50;;;;;;;5.55;2.30;;;;;;;;;;6124799;23;20020;-90
2023/06/07 13:08:16;;;;;;;4.05;3.08;;;;;;;;;;6125014;23;20022;-95
2023/06/07 13:10:42;;;;;;;4.68;2.03;;;;;;;;;;6122804;23;20014;-93
2023/06/07 13:13:08;;;;;;;3.17;2.33;;;;;;;;;;6122678;23;20161;-90
2023/06/07 13:15:35;;;;;;;7.38;2.22;;;;;;;;;;6120877;23;20026;-92
2023/06/07 13:18:02;;;;;;;4.03;2.47;;;;;;;;;;6120554;23;20013;-91
2023/06/07 13:20:28;;;;;;;5.75;2.65;;;;;;;;;;6120968;23;20046;-89
2023/06/07 13:22:55;;;;;;;5.32;2.67;;;;;;;;;;6120450;23;20022;-92
2023/06/07 13:25:21;;;;;;;4.05;2.28;;;;;;;;;;6095173;23;20025;-92
2023/06/07 13:27:47;;;;;;;5.75;2.92;;;;;;;;;;6096462;23;20014;-92
2023/06/07 13:30:13;;;;;;;5.85;2.97;;;;;;;;;;6120721;23;20328;-89
2023/06/07 13:32:40;;;;;;;5.45;2.30;;;;;;;;;;6120504;23;20025;-94
2023/06/07 13:35:06;;;;;;;5.90;2.83;;;;;;;;;;6119894;23;20025;-88
2023/06/07 13:37:32;;;;;;;4.60;2.78;;;;;;;;;;6123173;23;20046;-94
2023/06/07 13:39:59;;;;;;;5.40;2.33;;;;;;;;;;6124728;23;20472;-93
2023/06/07 13:42:26;;;;;;;6.13;2.40;;;;;;;;;;6124496;23;20470;-93
2023/06/07 13:44:52;;;;;;;3.80;2.28;;;;;;;;;;6124043;23;20071;-90
2023/06/07 13:47:20;;;;;;;4.43;2.70;;;;;;;;;;6098663;23;20025;-93
2023/06/07 13:49:46;;;;;;;3.92;2.50;;;;;;;;;;6129972;23;20018;-93
2023/06/07 13:52:12;;;;;;;6.75;2.67;;;;;;;;;;6097581;23;20021;-91
2023/06/07 13:54:39;;;;;;;8.15;2.60;;;;;;;;;;6126674;23;20021;-92
2023/06/07 13:57:05;;;;;;;6.50;3.72;;;;;;;;;;6098014;23;20014;-89
2023/06/07 13:59:31;;;;;;;5.55;3.00;;;;;;;;;;6120376;23;20018;-91
2023/06/07 14:01:58;;;;;;;5.93;3.03;;;;;;;;;;6122110;23;20022;-91
2023/06/07 14:04:24;;;;;;;4.88;2.67;;;;;;;;;;6121969;23;20085;-90
2023/06/07 14:06:51;;;;;;;4.85;2.42;;;;;;;;;;6122559;23;20081;-90
2023/06/07 14:09:17;;;;;;;6.43;2.70;;;;;;;;;;6123448;23;20018;-83
2023/06/07 14:11:43;;;;;;;4.60;3.10;;;;;;;;;;6120600;23;20026;-89
2023/06/07 14:14:09;;;;;;;5.53;2.72;;;;;;;;;;6122876;23;20043;-93
2023/06/07 14:16:35;;;;;;;3.95;2.67;;;;;;;;;;6130181;23;20010;-91
2023/06/07 14:19:02;;;;;;;4.55;2.90;;;;;;;;;;6127747;23;20388;-93
2023/06/07 14:21:28;;;;;;;4.47;2.70;;;;;;;;;;6099335;23;20014;-88
2023/06/07 14:23:54;;;;;;;3.63;2.20;;;;;;;;;;6124921;23;20022;-86
2023/06/07 14:26:20;;;;;;;5.93;2.85;;;;;;;;;;6125069;23;20017;-88
2023/06/07 14:28:48;;;;;;;5.18;2.85;;;;;;;;;;6126424;23;20025;-91
2023/06/07 14:31:16;;;;;;;3.92;2.22;;;;;;;;;;6123741;23;20355;-93
2023/06/07 14:33:43;;;;;;;6.60;3.22;;;;;;;;;;6124755;23;20014;-91
2023/06/07 14:36:09;;;;;;;5.53;2.45;;;;;;;;;;6127716;23;20021;-95
2023/06/07 14:38:35;;;;;;;5.13;3.10;;;;;;;;;;6102973;23;20018;-93
2023/06/07 14:41:02;;;;;;;5.07;2.70;;;;;;;;;;6125550;23;20009;-89
2023/06/07 14:43:28;;;;;;;2.78;2.00;;;;;;;;;;6128855;23;20014;-95